CEB252 RPMR-RPVM
Flight info
| Callsign | CEB252 |
|---|---|
| Flight time | 0h 48m |
| Altitude | 30000 |
| Route | LATIA4P LATIA W6 LUMVI DCT BOLOB BOLOB3P |
| Aircraft | A21N/M-SDE3FGHIRWY/LB1 |
Departure
| Time | 2026-05-07 03:09 |
|---|---|
| Airport | General Santos International Airport (RPMR) |
Arrival
| Time | 2026-05-07 03:58 |
|---|---|
| Airport | Mactan Cebu International Airport (RPVM) |
| Time | Latitude | Longitude | Altitude | Speed | Heading |
|---|---|---|---|---|---|
| 2026-05-07 02:49 | 6.05711 | 125.09965 | 524 ft | 0 kts | 83° |
| 2026-05-07 02:59 | 6.05710 | 125.09960 | 525 ft | 2 kts | 88° |
| 2026-05-07 02:59 | 6.05710 | 125.09945 | 525 ft | 2 kts | 83° |
| 2026-05-07 02:59 | 6.05708 | 125.09930 | 525 ft | 2 kts | 83° |
| 2026-05-07 03:00 | 6.05706 | 125.09915 | 525 ft | 2 kts | 84° |
| 2026-05-07 03:00 | 6.05704 | 125.09900 | 525 ft | 2 kts | 92° |
| 2026-05-07 03:00 | 6.05709 | 125.09886 | 525 ft | 2 kts | 130° |
| 2026-05-07 03:00 | 6.05722 | 125.09877 | 525 ft | 1 kts | 164° |
| 2026-05-07 03:01 | 6.05727 | 125.09875 | 525 ft | 0 kts | 175° |
| 2026-05-07 03:01 | 6.05701 | 125.09880 | 525 ft | 6 kts | 173° |
| 2026-05-07 03:01 | 6.05672 | 125.09884 | 525 ft | 1 kts | 173° |
| 2026-05-07 03:01 | 6.05670 | 125.09884 | 525 ft | 0 kts | 173° |
| 2026-05-07 03:03 | 6.05669 | 125.09884 | 525 ft | 0 kts | 173° |
| 2026-05-07 03:03 | 6.05658 | 125.09885 | 525 ft | 3 kts | 173° |
| 2026-05-07 03:04 | 6.05627 | 125.09889 | 525 ft | 5 kts | 173° |
| 2026-05-07 03:04 | 6.05576 | 125.09895 | 525 ft | 8 kts | 173° |
| 2026-05-07 03:04 | 6.05506 | 125.09904 | 525 ft | 11 kts | 173° |
| 2026-05-07 03:04 | 6.05436 | 125.09905 | 525 ft | 9 kts | 210° |
| 2026-05-07 03:05 | 6.05414 | 125.09839 | 525 ft | 11 kts | 264° |
| 2026-05-07 03:05 | 6.05405 | 125.09753 | 525 ft | 12 kts | 263° |
| 2026-05-07 03:05 | 6.05375 | 125.09678 | 525 ft | 11 kts | 202° |
| 2026-05-07 03:05 | 6.05286 | 125.09681 | 525 ft | 13 kts | 173° |
| 2026-05-07 03:06 | 6.05183 | 125.09693 | 525 ft | 15 kts | 173° |
| 2026-05-07 03:06 | 6.05067 | 125.09708 | 525 ft | 17 kts | 173° |
| 2026-05-07 03:06 | 6.04943 | 125.09722 | 525 ft | 18 kts | 173° |
| 2026-05-07 03:06 | 6.04809 | 125.09739 | 525 ft | 19 kts | 173° |
| 2026-05-07 03:07 | 6.04689 | 125.09753 | 525 ft | 15 kts | 173° |
| 2026-05-07 03:07 | 6.04577 | 125.09767 | 525 ft | 16 kts | 173° |
| 2026-05-07 03:07 | 6.04483 | 125.09777 | 526 ft | 10 kts | 181° |
| 2026-05-07 03:07 | 6.04411 | 125.09771 | 526 ft | 10 kts | 176° |
| 2026-05-07 03:08 | 6.04412 | 125.09787 | 526 ft | 5 kts | 8° |
| 2026-05-07 03:08 | 6.04442 | 125.09785 | 526 ft | 0 kts | 352° |
| 2026-05-07 03:08 | 6.04443 | 125.09784 | 526 ft | 1 kts | 352° |
| 2026-05-07 03:08 | 6.04611 | 125.09763 | 526 ft | 59 kts | 353° |
| 2026-05-07 03:09 | 6.05274 | 125.09683 | 526 ft | 127 kts | 352° |
| 2026-05-07 03:09 | 6.06326 | 125.09557 | 578 ft | 173 kts | 354° |
| 2026-05-07 03:09 | 6.07567 | 125.09410 | 1033 ft | 180 kts | 353° |
| 2026-05-07 03:09 | 6.08801 | 125.09338 | 1767 ft | 176 kts | 4° |
| 2026-05-07 03:10 | 6.09996 | 125.09467 | 2391 ft | 173 kts | 8° |
| 2026-05-07 03:10 | 6.11245 | 125.09644 | 2666 ft | 185 kts | 9° |
| 2026-05-07 03:10 | 6.12535 | 125.09908 | 2909 ft | 197 kts | 23° |
| 2026-05-07 03:10 | 6.13611 | 125.10794 | 3155 ft | 207 kts | 52° |
| 2026-05-07 03:11 | 6.14458 | 125.12016 | 3413 ft | 220 kts | 57° |
| 2026-05-07 03:11 | 6.15351 | 125.13372 | 3539 ft | 244 kts | 56° |
| 2026-05-07 03:11 | 6.16363 | 125.14834 | 3842 ft | 261 kts | 55° |
| 2026-05-07 03:11 | 6.17455 | 125.16341 | 4334 ft | 270 kts | 54° |
| 2026-05-07 03:12 | 6.18568 | 125.17838 | 5021 ft | 271 kts | 53° |
| 2026-05-07 03:12 | 6.19715 | 125.19362 | 5707 ft | 273 kts | 53° |
| 2026-05-07 03:12 | 6.20863 | 125.20881 | 6368 ft | 275 kts | 52° |
| 2026-05-07 03:12 | 6.22019 | 125.22405 | 7016 ft | 276 kts | 51° |
| 2026-05-07 03:13 | 6.23422 | 125.23732 | 7606 ft | 279 kts | 32° |
| 2026-05-07 03:13 | 6.25219 | 125.24473 | 8214 ft | 283 kts | 14° |
| 2026-05-07 03:13 | 6.27146 | 125.24915 | 8799 ft | 285 kts | 13° |
| 2026-05-07 03:13 | 6.29106 | 125.25341 | 9382 ft | 288 kts | 13° |
| 2026-05-07 03:14 | 6.31086 | 125.25777 | 9949 ft | 290 kts | 13° |
| 2026-05-07 03:14 | 6.33060 | 125.26221 | 10396 ft | 298 kts | 14° |
| 2026-05-07 03:14 | 6.37317 | 125.27193 | 10880 ft | 326 kts | 14° |
| 2026-05-07 03:15 | 6.39592 | 125.27716 | 11122 ft | 339 kts | 14° |
| 2026-05-07 03:15 | 6.41929 | 125.28232 | 11342 ft | 352 kts | 11° |
| 2026-05-07 03:15 | 6.44424 | 125.28185 | 11524 ft | 367 kts | 349° |
| 2026-05-07 03:15 | 6.46828 | 125.27140 | 11709 ft | 382 kts | 327° |
| 2026-05-07 03:16 | 6.48947 | 125.25476 | 11909 ft | 393 kts | 322° |
| 2026-05-07 03:16 | 6.51113 | 125.23704 | 12097 ft | 404 kts | 322° |
| 2026-05-07 03:16 | 6.53335 | 125.21894 | 12282 ft | 414 kts | 322° |
| 2026-05-07 03:16 | 6.55607 | 125.20059 | 12559 ft | 420 kts | 322° |
| 2026-05-07 03:17 | 6.57878 | 125.18233 | 12932 ft | 422 kts | 322° |
| 2026-05-07 03:17 | 6.60189 | 125.16380 | 13313 ft | 425 kts | 323° |
| 2026-05-07 03:17 | 6.62500 | 125.14532 | 13662 ft | 427 kts | 323° |
| 2026-05-07 03:17 | 6.64850 | 125.12654 | 14015 ft | 430 kts | 323° |
| 2026-05-07 03:18 | 6.67205 | 125.10774 | 14371 ft | 432 kts | 323° |
| 2026-05-07 03:18 | 6.69557 | 125.08896 | 14709 ft | 434 kts | 323° |
| 2026-05-07 03:18 | 6.71941 | 125.06990 | 15042 ft | 436 kts | 323° |
| 2026-05-07 03:18 | 6.74314 | 125.05092 | 15360 ft | 438 kts | 323° |
| 2026-05-07 03:19 | 6.76734 | 125.03155 | 15673 ft | 440 kts | 323° |
| 2026-05-07 03:19 | 6.79142 | 125.01227 | 15962 ft | 442 kts | 323° |
| 2026-05-07 03:19 | 6.81555 | 124.99295 | 16247 ft | 444 kts | 323° |
| 2026-05-07 03:19 | 6.83969 | 124.97361 | 16513 ft | 446 kts | 323° |
| 2026-05-07 03:20 | 6.86431 | 124.95390 | 16763 ft | 449 kts | 323° |
| 2026-05-07 03:20 | 6.88959 | 124.93579 | 16994 ft | 449 kts | 330° |
| 2026-05-07 03:20 | 6.91756 | 124.92175 | 17229 ft | 448 kts | 340° |
| 2026-05-07 03:20 | 6.94722 | 124.91227 | 17494 ft | 446 kts | 348° |
| 2026-05-07 03:21 | 6.97804 | 124.90554 | 17769 ft | 447 kts | 350° |
| 2026-05-07 03:21 | 7.00860 | 124.89941 | 18017 ft | 448 kts | 351° |
| 2026-05-07 03:21 | 7.03944 | 124.89327 | 18276 ft | 449 kts | 351° |
| 2026-05-07 03:21 | 7.06988 | 124.88715 | 18516 ft | 450 kts | 351° |
| 2026-05-07 03:22 | 7.10100 | 124.88082 | 18732 ft | 452 kts | 350° |
| 2026-05-07 03:22 | 7.13198 | 124.87446 | 18950 ft | 453 kts | 350° |
| 2026-05-07 03:22 | 7.16324 | 124.86801 | 19161 ft | 454 kts | 350° |
| 2026-05-07 03:22 | 7.19404 | 124.86165 | 19360 ft | 456 kts | 350° |
| 2026-05-07 03:23 | 7.22555 | 124.85513 | 19603 ft | 457 kts | 350° |
| 2026-05-07 03:23 | 7.25683 | 124.84867 | 19794 ft | 458 kts | 350° |
| 2026-05-07 03:23 | 7.28858 | 124.84212 | 19993 ft | 459 kts | 350° |
| 2026-05-07 03:23 | 7.31968 | 124.83573 | 20188 ft | 461 kts | 350° |
| 2026-05-07 03:24 | 7.35139 | 124.82921 | 20378 ft | 462 kts | 350° |
| 2026-05-07 03:24 | 7.38291 | 124.82272 | 20581 ft | 462 kts | 350° |
| 2026-05-07 03:24 | 7.41460 | 124.81619 | 20780 ft | 463 kts | 350° |
| 2026-05-07 03:24 | 7.44630 | 124.80965 | 20961 ft | 464 kts | 350° |
| 2026-05-07 03:25 | 7.47819 | 124.80307 | 21132 ft | 465 kts | 350° |
| 2026-05-07 03:25 | 7.51036 | 124.79643 | 21311 ft | 466 kts | 350° |
| 2026-05-07 03:25 | 7.54204 | 124.78989 | 21483 ft | 466 kts | 350° |
| 2026-05-07 03:25 | 7.57419 | 124.78324 | 21639 ft | 467 kts | 350° |
| 2026-05-07 03:26 | 7.60613 | 124.77663 | 21793 ft | 468 kts | 350° |
| 2026-05-07 03:26 | 7.63822 | 124.77001 | 21942 ft | 469 kts | 350° |
| 2026-05-07 03:26 | 7.67047 | 124.76335 | 22080 ft | 471 kts | 350° |
| 2026-05-07 03:26 | 7.70282 | 124.75667 | 22224 ft | 472 kts | 350° |
| 2026-05-07 03:27 | 7.73508 | 124.75000 | 22374 ft | 472 kts | 350° |
| 2026-05-07 03:27 | 7.76764 | 124.74326 | 22528 ft | 473 kts | 350° |
| 2026-05-07 03:27 | 7.79957 | 124.73665 | 22675 ft | 474 kts | 350° |
| 2026-05-07 03:27 | 7.83231 | 124.72988 | 22822 ft | 475 kts | 350° |
| 2026-05-07 03:28 | 7.86468 | 124.72318 | 22970 ft | 476 kts | 350° |
| 2026-05-07 03:28 | 7.89710 | 124.71647 | 23118 ft | 476 kts | 350° |
| 2026-05-07 03:28 | 7.93000 | 124.70966 | 23260 ft | 477 kts | 350° |
| 2026-05-07 03:28 | 7.96260 | 124.70290 | 23394 ft | 478 kts | 350° |
| 2026-05-07 03:29 | 7.99528 | 124.69615 | 23554 ft | 478 kts | 350° |
| 2026-05-07 03:29 | 8.02806 | 124.68940 | 23773 ft | 477 kts | 350° |
| 2026-05-07 03:29 | 8.06051 | 124.68271 | 23979 ft | 476 kts | 350° |
| 2026-05-07 03:29 | 8.09318 | 124.67597 | 24166 ft | 476 kts | 350° |
| 2026-05-07 03:30 | 8.12597 | 124.66920 | 24351 ft | 476 kts | 350° |
| 2026-05-07 03:30 | 8.15823 | 124.66254 | 24550 ft | 476 kts | 350° |
| 2026-05-07 03:30 | 8.19073 | 124.65581 | 24752 ft | 475 kts | 350° |
| 2026-05-07 03:30 | 8.22345 | 124.64904 | 24961 ft | 475 kts | 350° |
| 2026-05-07 03:31 | 8.25600 | 124.64230 | 25185 ft | 474 kts | 350° |
| 2026-05-07 03:31 | 8.28825 | 124.63562 | 25397 ft | 473 kts | 350° |
| 2026-05-07 03:31 | 8.32072 | 124.62890 | 25614 ft | 472 kts | 349° |
| 2026-05-07 03:31 | 8.35278 | 124.62225 | 25828 ft | 472 kts | 349° |
| 2026-05-07 03:32 | 8.38526 | 124.61485 | 25902 ft | 473 kts | 347° |
| 2026-05-07 03:32 | 8.41656 | 124.60502 | 25902 ft | 474 kts | 342° |
| 2026-05-07 03:32 | 8.44752 | 124.59228 | 25897 ft | 476 kts | 337° |
| 2026-05-07 03:32 | 8.47707 | 124.57748 | 25890 ft | 476 kts | 334° |
| 2026-05-07 03:33 | 8.50670 | 124.56190 | 25879 ft | 476 kts | 334° |
| 2026-05-07 03:33 | 8.53574 | 124.54647 | 25720 ft | 471 kts | 334° |
| 2026-05-07 03:33 | 8.56456 | 124.53114 | 25483 ft | 466 kts | 334° |
| 2026-05-07 03:33 | 8.59376 | 124.51562 | 25239 ft | 466 kts | 334° |
| 2026-05-07 03:34 | 8.62250 | 124.50040 | 24997 ft | 467 kts | 334° |
| 2026-05-07 03:34 | 8.65127 | 124.48517 | 24755 ft | 468 kts | 334° |
| 2026-05-07 03:34 | 8.68014 | 124.46990 | 24515 ft | 469 kts | 334° |
| 2026-05-07 03:34 | 8.70916 | 124.45457 | 24275 ft | 470 kts | 334° |
| 2026-05-07 03:35 | 8.73844 | 124.43909 | 24030 ft | 471 kts | 334° |
| 2026-05-07 03:35 | 8.76731 | 124.42382 | 23790 ft | 471 kts | 334° |
| 2026-05-07 03:35 | 8.79664 | 124.40832 | 23548 ft | 472 kts | 334° |
| 2026-05-07 03:35 | 8.82587 | 124.39287 | 23310 ft | 472 kts | 334° |
| 2026-05-07 03:36 | 8.85483 | 124.37755 | 23078 ft | 473 kts | 334° |
| 2026-05-07 03:36 | 8.88413 | 124.36206 | 22835 ft | 474 kts | 334° |
| 2026-05-07 03:36 | 8.91374 | 124.34640 | 22592 ft | 475 kts | 334° |
| 2026-05-07 03:36 | 8.94314 | 124.33083 | 22359 ft | 475 kts | 334° |
| 2026-05-07 03:37 | 8.97263 | 124.31522 | 22128 ft | 476 kts | 335° |
| 2026-05-07 03:37 | 9.00201 | 124.29967 | 21902 ft | 478 kts | 335° |
| 2026-05-07 03:37 | 9.03170 | 124.28396 | 21672 ft | 478 kts | 335° |
| 2026-05-07 03:37 | 9.06092 | 124.26849 | 21446 ft | 477 kts | 335° |
| 2026-05-07 03:38 | 9.09027 | 124.25294 | 21217 ft | 475 kts | 335° |
| 2026-05-07 03:38 | 9.11973 | 124.23733 | 20988 ft | 474 kts | 335° |
| 2026-05-07 03:38 | 9.14907 | 124.22178 | 20756 ft | 473 kts | 335° |
| 2026-05-07 03:38 | 9.17813 | 124.20637 | 20528 ft | 471 kts | 335° |
| 2026-05-07 03:39 | 9.20721 | 124.19096 | 20298 ft | 470 kts | 335° |
| 2026-05-07 03:39 | 9.23623 | 124.17555 | 20068 ft | 468 kts | 335° |
| 2026-05-07 03:39 | 9.26542 | 124.16007 | 19835 ft | 467 kts | 335° |
| 2026-05-07 03:39 | 9.29393 | 124.14494 | 19606 ft | 465 kts | 335° |
| 2026-05-07 03:40 | 9.32267 | 124.12968 | 19376 ft | 464 kts | 335° |
| 2026-05-07 03:40 | 9.35117 | 124.11455 | 19142 ft | 462 kts | 335° |
| 2026-05-07 03:40 | 9.37983 | 124.10001 | 18701 ft | 452 kts | 340° |
| 2026-05-07 03:40 | 9.41013 | 124.09250 | 17719 ft | 441 kts | 358° |
| 2026-05-07 03:41 | 9.44027 | 124.09463 | 16712 ft | 431 kts | 15° |
| 2026-05-07 03:41 | 9.46791 | 124.10488 | 15755 ft | 421 kts | 30° |
| 2026-05-07 03:41 | 9.49138 | 124.12187 | 14807 ft | 411 kts | 45° |
| 2026-05-07 03:41 | 9.50931 | 124.14414 | 13916 ft | 402 kts | 59° |
| 2026-05-07 03:42 | 9.52068 | 124.16975 | 13298 ft | 398 kts | 73° |
| 2026-05-07 03:42 | 9.52567 | 124.19695 | 12986 ft | 397 kts | 83° |
| 2026-05-07 03:42 | 9.53024 | 124.22482 | 12905 ft | 397 kts | 76° |
| 2026-05-07 03:42 | 9.53698 | 124.25176 | 12877 ft | 396 kts | 76° |
| 2026-05-07 03:43 | 9.54615 | 124.27813 | 12848 ft | 397 kts | 62° |
| 2026-05-07 03:43 | 9.56308 | 124.30028 | 12695 ft | 400 kts | 45° |
| 2026-05-07 03:43 | 9.58609 | 124.31609 | 12463 ft | 402 kts | 28° |
| 2026-05-07 03:43 | 9.61317 | 124.32427 | 12230 ft | 407 kts | 11° |
| 2026-05-07 03:44 | 9.64153 | 124.32381 | 12002 ft | 412 kts | 353° |
| 2026-05-07 03:44 | 9.66893 | 124.31435 | 11768 ft | 417 kts | 335° |
| 2026-05-07 03:44 | 9.69212 | 124.29672 | 11473 ft | 415 kts | 316° |
| 2026-05-07 03:44 | 9.70857 | 124.27288 | 11256 ft | 406 kts | 299° |
| 2026-05-07 03:45 | 9.72090 | 124.24765 | 11075 ft | 392 kts | 301° |
| 2026-05-07 03:45 | 9.73630 | 124.22569 | 10905 ft | 374 kts | 315° |
| 2026-05-07 03:45 | 9.75389 | 124.20709 | 10789 ft | 359 kts | 317° |
| 2026-05-07 03:45 | 9.77149 | 124.18946 | 10672 ft | 345 kts | 319° |
| 2026-05-07 03:46 | 9.78839 | 124.17306 | 10528 ft | 332 kts | 320° |
| 2026-05-07 03:46 | 9.80503 | 124.15711 | 10383 ft | 321 kts | 320° |
| 2026-05-07 03:46 | 9.82100 | 124.14187 | 10245 ft | 310 kts | 320° |
| 2026-05-07 03:46 | 9.83644 | 124.12716 | 10106 ft | 300 kts | 320° |
| 2026-05-07 03:47 | 9.85138 | 124.11292 | 9958 ft | 293 kts | 320° |
| 2026-05-07 03:47 | 9.86637 | 124.09864 | 9593 ft | 292 kts | 320° |
| 2026-05-07 03:47 | 9.88114 | 124.08459 | 9215 ft | 292 kts | 320° |
| 2026-05-07 03:47 | 9.89580 | 124.07058 | 8847 ft | 291 kts | 320° |
| 2026-05-07 03:48 | 9.91052 | 124.05652 | 8505 ft | 289 kts | 320° |
| 2026-05-07 03:48 | 9.92517 | 124.04251 | 8167 ft | 286 kts | 320° |
| 2026-05-07 03:48 | 9.93970 | 124.02861 | 7821 ft | 284 kts | 320° |
| 2026-05-07 03:48 | 9.95406 | 124.01488 | 7477 ft | 281 kts | 320° |
| 2026-05-07 03:49 | 9.96812 | 124.00143 | 7147 ft | 279 kts | 320° |
| 2026-05-07 03:49 | 9.98240 | 123.98777 | 6828 ft | 276 kts | 320° |
| 2026-05-07 03:49 | 9.99631 | 123.97445 | 6514 ft | 273 kts | 320° |
| 2026-05-07 03:49 | 10.01015 | 123.96120 | 6183 ft | 271 kts | 321° |
| 2026-05-07 03:50 | 10.02402 | 123.94793 | 5853 ft | 269 kts | 320° |
| 2026-05-07 03:50 | 10.03755 | 123.93499 | 5533 ft | 267 kts | 320° |
| 2026-05-07 03:50 | 10.05120 | 123.92194 | 5211 ft | 264 kts | 320° |
| 2026-05-07 03:50 | 10.06467 | 123.90904 | 4905 ft | 262 kts | 320° |
| 2026-05-07 03:51 | 10.07772 | 123.89650 | 4604 ft | 260 kts | 320° |
| 2026-05-07 03:51 | 10.09067 | 123.88347 | 4290 ft | 258 kts | 318° |
| 2026-05-07 03:51 | 10.10320 | 123.87064 | 3989 ft | 256 kts | 318° |
| 2026-05-07 03:51 | 10.11580 | 123.85774 | 3684 ft | 254 kts | 318° |
| 2026-05-07 03:52 | 10.12812 | 123.84517 | 3425 ft | 249 kts | 318° |
| 2026-05-07 03:52 | 10.14103 | 123.83422 | 3333 ft | 232 kts | 340° |
| 2026-05-07 03:52 | 10.15624 | 123.83234 | 3287 ft | 217 kts | 17° |
| 2026-05-07 03:52 | 10.16871 | 123.83870 | 3231 ft | 189 kts | 43° |
| 2026-05-07 03:53 | 10.17749 | 123.84750 | 3096 ft | 166 kts | 48° |
| 2026-05-07 03:53 | 10.18506 | 123.85544 | 2936 ft | 146 kts | 49° |
| 2026-05-07 03:53 | 10.19211 | 123.86282 | 2828 ft | 142 kts | 48° |
| 2026-05-07 03:53 | 10.19910 | 123.87004 | 2734 ft | 141 kts | 48° |
| 2026-05-07 03:54 | 10.20609 | 123.87717 | 2621 ft | 141 kts | 47° |
| 2026-05-07 03:54 | 10.21302 | 123.88420 | 2360 ft | 140 kts | 47° |
| 2026-05-07 03:54 | 10.21998 | 123.89122 | 2152 ft | 140 kts | 47° |
| 2026-05-07 03:54 | 10.22686 | 123.89815 | 1961 ft | 140 kts | 46° |
| 2026-05-07 03:55 | 10.23378 | 123.90511 | 1771 ft | 139 kts | 46° |
| 2026-05-07 03:55 | 10.24065 | 123.91201 | 1584 ft | 139 kts | 46° |
| 2026-05-07 03:55 | 10.24751 | 123.91891 | 1400 ft | 138 kts | 46° |
| 2026-05-07 03:55 | 10.25442 | 123.92584 | 1215 ft | 138 kts | 45° |
| 2026-05-07 03:56 | 10.26132 | 123.93277 | 1030 ft | 138 kts | 45° |
| 2026-05-07 03:56 | 10.26815 | 123.93963 | 847 ft | 137 kts | 45° |
| 2026-05-07 03:56 | 10.27498 | 123.94648 | 664 ft | 137 kts | 45° |
| 2026-05-07 03:56 | 10.28170 | 123.95322 | 485 ft | 137 kts | 44° |
| 2026-05-07 03:57 | 10.28843 | 123.96008 | 311 ft | 136 kts | 45° |
| 2026-05-07 03:57 | 10.29517 | 123.96699 | 150 ft | 137 kts | 44° |
| 2026-05-07 03:57 | 10.30183 | 123.97369 | 46 ft | 126 kts | 43° |
| 2026-05-07 03:57 | 10.30685 | 123.97871 | 45 ft | 76 kts | 45° |
| 2026-05-07 03:58 | 10.30949 | 123.98136 | 45 ft | 31 kts | 44° |
| 2026-05-07 03:58 | 10.31058 | 123.98240 | 45 ft | 16 kts | 38° |
| 2026-05-07 03:58 | 10.31153 | 123.98301 | 45 ft | 15 kts | 28° |
| 2026-05-07 03:58 | 10.31254 | 123.98337 | 45 ft | 15 kts | 17° |
| 2026-05-07 03:59 | 10.31356 | 123.98347 | 45 ft | 14 kts | 338° |
| 2026-05-07 03:59 | 10.31417 | 123.98296 | 45 ft | 9 kts | 315° |
| 2026-05-07 03:59 | 10.31467 | 123.98245 | 45 ft | 10 kts | 315° |
| 2026-05-07 03:59 | 10.31520 | 123.98192 | 45 ft | 10 kts | 315° |
| 2026-05-07 04:00 | 10.31561 | 123.98146 | 45 ft | 7 kts | 297° |
| 2026-05-07 04:00 | 10.31554 | 123.98097 | 45 ft | 6 kts | 232° |
| 2026-05-07 04:00 | 10.31531 | 123.98073 | 45 ft | 4 kts | 226° |
| 2026-05-07 04:00 | 10.31508 | 123.98049 | 45 ft | 4 kts | 224° |
| 2026-05-07 04:01 | 10.31489 | 123.98030 | 45 ft | 3 kts | 224° |
| 2026-05-07 04:01 | 10.31470 | 123.98012 | 45 ft | 3 kts | 225° |
| 2026-05-07 04:01 | 10.31456 | 123.97992 | 45 ft | 2 kts | 263° |
| 2026-05-07 04:01 | 10.31467 | 123.97970 | 45 ft | 3 kts | 309° |
| 2026-05-07 04:02 | 10.31482 | 123.97952 | 45 ft | 3 kts | 313° |
| 2026-05-07 04:02 | 10.31494 | 123.97939 | 45 ft | 1 kts | 313° |
| 2026-05-07 04:02 | 10.31501 | 123.97932 | 45 ft | 0 kts | 314° |
| 2026-05-07 04:02 | 10.31503 | 123.97930 | 45 ft | 0 kts | 314° |